createdAt,value
2022-07-28T00:00:06.263Z,100.00
2022-07-28T00:02:35.277Z,100.00
2022-07-28T00:05:01.914Z,100.00
2022-07-28T00:07:28.446Z,100.00
2022-07-28T00:10:00.180Z,100.00
2022-07-28T00:12:28.841Z,100.00
2022-07-28T00:14:55.434Z,100.00
2022-07-28T00:17:21.970Z,100.00
2022-07-28T00:19:48.847Z,100.00
2022-07-28T00:22:15.369Z,100.00
2022-07-28T00:24:42.260Z,100.00
2022-07-28T00:27:09.219Z,100.00
2022-07-28T00:29:49.864Z,100.00
2022-07-28T00:32:18.196Z,100.00
2022-07-28T00:34:45.780Z,100.00
2022-07-28T00:37:14.486Z,100.00
2022-07-28T00:39:41.704Z,100.00
2022-07-28T00:42:08.491Z,100.00
2022-07-28T00:44:35.020Z,100.00
2022-07-28T00:47:01.664Z,100.00
2022-07-28T00:49:28.952Z,100.00
2022-07-28T00:51:55.544Z,100.00
2022-07-28T00:54:22.190Z,100.00
2022-07-28T00:56:49.877Z,100.00
2022-07-28T00:59:16.396Z,100.00
2022-07-28T01:01:43.136Z,100.00
2022-07-28T01:04:09.721Z,100.00
2022-07-28T01:06:54.522Z,100.00
2022-07-28T01:09:58.442Z,100.00
2022-07-28T01:13:18.883Z,100.00
2022-07-28T01:16:11.145Z,100.00
2022-07-28T01:18:46.698Z,100.00
2022-07-28T01:21:17.901Z,100.00
2022-07-28T01:24:13.788Z,100.00
2022-07-28T01:26:51.288Z,100.00
2022-07-28T01:29:20.514Z,100.00
2022-07-28T01:31:56.323Z,100.00
2022-07-28T01:34:33.202Z,100.00
2022-07-28T01:37:07.265Z,100.00
2022-07-28T01:39:37.600Z,100.00
2022-07-28T01:42:07.348Z,100.00
2022-07-28T01:44:40.887Z,100.00
2022-07-28T01:47:09.286Z,100.00
2022-07-28T01:49:37.891Z,100.00
2022-07-28T01:52:07.174Z,100.00
2022-07-28T01:54:37.400Z,100.00
2022-07-28T01:57:05.539Z,100.00
2022-07-28T01:59:35.917Z,100.00
2022-07-28T02:02:03.338Z,100.00
2022-07-28T02:04:33.356Z,100.00
2022-07-28T02:07:02.600Z,100.00
2022-07-28T02:09:30.788Z,100.00
2022-07-28T02:11:58.092Z,100.00
2022-07-28T02:14:27.507Z,100.00
2022-07-28T02:17:11.192Z,100.00
2022-07-28T02:19:39.500Z,100.00
2022-07-28T02:22:06.900Z,100.00
2022-07-28T02:24:35.472Z,100.00
2022-07-28T02:27:13.706Z,100.00
2022-07-28T02:29:51.437Z,100.00
2022-07-28T02:32:32.178Z,100.00
2022-07-28T02:35:06.834Z,100.00
2022-07-28T02:37:41.283Z,100.00
2022-07-28T02:40:14.142Z,100.00
2022-07-28T02:42:41.925Z,100.00
2022-07-28T02:45:11.741Z,100.00
2022-07-28T02:47:44.097Z,100.00
2022-07-28T02:50:12.656Z,100.00
2022-07-28T02:52:41.803Z,100.00
2022-07-28T02:55:10.680Z,100.00
2022-07-28T02:57:40.390Z,100.00
2022-07-28T03:00:07.680Z,100.00
2022-07-28T03:02:36.748Z,100.00
2022-07-28T03:05:11.116Z,100.00
2022-07-28T03:07:41.241Z,100.00
2022-07-28T03:10:19.558Z,100.00
2022-07-28T03:13:01.074Z,100.00
2022-07-28T03:15:27.740Z,100.00
2022-07-28T03:17:54.277Z,100.00
2022-07-28T03:20:20.839Z,100.00
2022-07-28T03:22:47.386Z,100.00
2022-07-28T03:25:23.346Z,100.00
2022-07-28T03:27:52.702Z,100.00
2022-07-28T03:30:29.525Z,100.00
2022-07-28T03:32:59.839Z,100.00
2022-07-28T03:35:27.405Z,100.00
2022-07-28T03:38:10.871Z,100.00
2022-07-28T03:40:38.709Z,100.00
2022-07-28T03:43:08.307Z,100.00
2022-07-28T03:45:35.640Z,100.00
2022-07-28T03:48:02.382Z,100.00
2022-07-28T03:50:31.832Z,100.00
2022-07-28T03:53:00.223Z,100.00
2022-07-28T03:55:27.076Z,100.00
2022-07-28T03:57:53.677Z,100.00
2022-07-28T04:00:20.892Z,100.00
2022-07-28T04:02:47.686Z,100.00
2022-07-28T04:05:17.017Z,100.00
2022-07-28T04:07:44.506Z,100.00
2022-07-28T04:10:13.444Z,100.00
2022-07-28T04:12:57.222Z,100.00
2022-07-28T04:15:25.893Z,100.00
2022-07-28T04:17:53.948Z,100.00
2022-07-28T04:20:23.232Z,100.00
2022-07-28T04:22:50.542Z,100.00
2022-07-28T04:25:18.713Z,100.00
2022-07-28T04:27:45.799Z,97.80
2022-07-28T04:30:17.265Z,92.89
2022-07-28T04:32:49.097Z,89.41
2022-07-28T04:35:17.648Z,87.92
2022-07-28T04:37:45.347Z,86.55
2022-07-28T04:40:13.515Z,81.19
2022-07-28T04:42:40.870Z,80.75
2022-07-28T04:45:09.835Z,81.19
2022-07-28T04:47:37.029Z,79.23
2022-07-28T04:50:05.044Z,74.84
2022-07-28T04:52:31.634Z,71.99
2022-07-28T04:54:58.205Z,69.79
2022-07-28T04:57:28.004Z,66.39
2022-07-28T04:59:56.647Z,71.38
2022-07-28T05:02:23.421Z,70.83
2022-07-28T05:04:50.569Z,67.24
2022-07-28T05:07:17.236Z,69.79
2022-07-28T05:09:43.934Z,74.05
2022-07-28T05:12:10.917Z,75.92
2022-07-28T05:14:37.532Z,71.22
2022-07-28T05:17:04.408Z,68.37
2022-07-28T05:19:31.052Z,67.50
2022-07-28T05:21:57.546Z,69.39
2022-07-28T05:24:24.174Z,76.09
2022-07-28T05:26:50.752Z,75.68
2022-07-28T05:29:17.275Z,76.74
2022-07-28T05:31:43.869Z,77.11
2022-07-28T05:34:10.543Z,82.38
2022-07-28T05:36:38.369Z,87.09
2022-07-28T05:39:05.021Z,90.05
2022-07-28T05:41:31.540Z,92.86
2022-07-28T05:43:58.495Z,93.41
2022-07-28T05:46:25.075Z,91.42
2022-07-28T05:48:51.976Z,73.22
2022-07-28T05:51:19.209Z,61.40
2022-07-28T05:53:45.736Z,59.47
2022-07-28T05:56:14.350Z,58.33
2022-07-28T05:58:40.900Z,62.46
2022-07-28T06:01:07.532Z,64.11
2022-07-28T06:03:39.792Z,62.35
2022-07-28T06:06:16.021Z,62.61
2022-07-28T06:08:43.901Z,61.66
2022-07-28T06:11:11.710Z,63.97
2022-07-28T06:13:39.727Z,61.76
2022-07-28T06:16:11.186Z,60.02
2022-07-28T06:18:39.665Z,55.45
2022-07-28T06:21:06.341Z,53.16
2022-07-28T06:23:32.845Z,52.19
2022-07-28T06:25:59.412Z,52.00
2022-07-28T06:28:25.954Z,50.99
2022-07-28T06:30:52.487Z,47.84
2022-07-28T06:33:19.176Z,46.45
2022-07-28T06:35:48.321Z,47.24
2022-07-28T06:38:19.537Z,45.92
2022-07-28T06:40:46.403Z,46.22
2022-07-28T06:43:14.652Z,46.01
2022-07-28T06:45:41.434Z,45.34
2022-07-28T06:48:09.343Z,44.77
2022-07-28T06:50:41.511Z,45.40
2022-07-28T06:53:09.508Z,44.15
2022-07-28T06:55:37.745Z,45.01
2022-07-28T06:58:04.955Z,45.69
2022-07-28T07:00:32.108Z,42.86
2022-07-28T07:03:00.627Z,42.04
2022-07-28T07:05:32.405Z,45.11
2022-07-28T07:08:00.610Z,41.77
2022-07-28T07:10:27.384Z,38.39
2022-07-28T07:12:54.065Z,37.93
2022-07-28T07:15:21.944Z,38.32
2022-07-28T07:17:48.710Z,39.11
2022-07-28T07:20:18.162Z,37.73
2022-07-28T07:22:46.364Z,34.85
2022-07-28T07:25:16.560Z,38.11
2022-07-28T07:27:44.079Z,38.51
2022-07-28T07:30:12.865Z,38.16
2022-07-28T07:32:40.404Z,34.92
2022-07-28T07:35:07.353Z,36.54
2022-07-28T07:37:34.025Z,33.08
2022-07-28T07:40:01.460Z,33.19
2022-07-28T07:42:28.130Z,31.07
2022-07-28T07:44:55.094Z,34.48
2022-07-28T07:47:21.636Z,32.79
2022-07-28T07:49:49.478Z,35.02
2022-07-28T07:52:16.055Z,34.54
2022-07-28T07:54:43.017Z,38.03
2022-07-28T07:57:10.431Z,38.78
2022-07-28T07:59:37.068Z,36.42
2022-07-28T08:02:04.291Z,34.83
2022-07-28T08:04:30.932Z,33.63
2022-07-28T08:06:57.546Z,36.58
2022-07-28T08:09:24.228Z,38.07
2022-07-28T08:11:52.267Z,34.50
2022-07-28T08:14:18.991Z,36.12
2022-07-28T08:16:45.594Z,35.98
2022-07-28T08:19:12.473Z,36.69
2022-07-28T08:21:40.509Z,36.01
2022-07-28T08:24:07.491Z,36.74
2022-07-28T08:26:35.688Z,34.02
2022-07-28T08:29:02.231Z,34.02
2022-07-28T08:31:28.837Z,34.90
2022-07-28T08:33:58.414Z,31.98
2022-07-28T08:36:25.118Z,33.99
2022-07-28T08:38:51.948Z,35.12
2022-07-28T08:41:48.572Z,36.42
2022-07-28T08:44:18.754Z,33.01
2022-07-28T08:46:48.721Z,33.42
2022-07-28T08:49:16.110Z,35.15
2022-07-28T08:51:49.686Z,33.85
2022-07-28T08:54:20.305Z,34.10
2022-07-28T08:56:48.030Z,35.16
2022-07-28T08:59:15.340Z,34.36
2022-07-28T09:01:42.315Z,32.50
2022-07-28T09:04:09.328Z,32.25
2022-07-28T09:06:42.012Z,32.23
2022-07-28T09:09:09.872Z,32.69
2022-07-28T09:11:37.641Z,33.99
2022-07-28T09:14:05.627Z,34.01
2022-07-28T09:16:32.445Z,33.11
2022-07-28T09:18:59.100Z,32.96
2022-07-28T09:21:25.675Z,35.21
2022-07-28T09:23:53.307Z,36.92
2022-07-28T09:26:19.987Z,34.37
2022-07-28T09:28:55.435Z,33.24
2022-07-28T09:31:23.365Z,32.13
2022-07-28T09:34:08.238Z,32.92
2022-07-28T09:36:40.736Z,33.55
2022-07-28T09:39:07.720Z,32.57
2022-07-28T09:41:55.183Z,32.74
2022-07-28T09:44:23.462Z,34.71
2022-07-28T09:46:51.064Z,36.02
2022-07-28T09:49:17.998Z,33.29
2022-07-28T09:52:05.588Z,32.98
2022-07-28T09:54:33.559Z,33.46
2022-07-28T09:57:01.948Z,34.68
2022-07-28T09:59:44.170Z,34.50
2022-07-28T10:02:27.164Z,35.05
2022-07-28T10:04:54.370Z,35.10
2022-07-28T10:07:21.771Z,36.09
2022-07-28T10:10:20.220Z,38.20
2022-07-28T10:12:46.989Z,37.26
2022-07-28T10:15:34.867Z,37.84
2022-07-28T10:18:01.893Z,36.91
2022-07-28T10:20:29.032Z,34.74
2022-07-28T10:23:02.622Z,33.64
2022-07-28T10:25:32.872Z,34.29
2022-07-28T10:28:02.398Z,34.80
2022-07-28T10:30:31.650Z,34.21
2022-07-28T10:32:59.838Z,34.64
2022-07-28T10:35:28.047Z,33.74
2022-07-28T10:37:59.495Z,32.23
2022-07-28T10:40:29.835Z,33.89
2022-07-28T10:42:56.754Z,33.38
2022-07-28T10:45:32.653Z,32.88
2022-07-28T10:48:09.183Z,32.42
2022-07-28T10:50:39.005Z,33.51
2022-07-28T10:53:07.954Z,34.06
2022-07-28T10:55:38.368Z,35.70
2022-07-28T10:59:06.161Z,32.23
2022-07-28T11:01:50.168Z,32.08
2022-07-28T11:04:41.693Z,33.70
2022-07-28T11:07:13.079Z,32.81
2022-07-28T11:09:40.121Z,31.92
2022-07-28T11:12:09.755Z,33.18
2022-07-28T11:14:39.495Z,32.95
2022-07-28T11:17:10.444Z,31.36
2022-07-28T11:22:34.305Z,34.14
2022-07-28T11:25:20.846Z,35.15
2022-07-28T11:27:50.288Z,34.69
2022-07-28T11:30:21.250Z,33.80
2022-07-28T11:32:50.760Z,35.79
2022-07-28T11:35:19.400Z,33.15
2022-07-28T11:38:01.116Z,33.46
2022-07-28T11:40:35.096Z,32.89
2022-07-28T11:43:33.999Z,32.67
2022-07-28T11:46:07.603Z,34.20
2022-07-28T11:48:37.704Z,33.67
2022-07-28T11:51:04.317Z,34.23
2022-07-28T11:53:49.911Z,32.38
2022-07-28T11:56:24.507Z,32.56
2022-07-28T11:58:59.622Z,32.85
2022-07-28T12:01:27.098Z,34.87
2022-07-28T12:03:56.820Z,32.65
2022-07-28T12:06:36.693Z,34.32
2022-07-28T12:09:06.210Z,33.95
2022-07-28T12:11:38.042Z,32.83
2022-07-28T12:14:09.500Z,32.20
2022-07-28T12:16:39.848Z,32.00
2022-07-28T12:19:08.017Z,33.77
2022-07-28T12:21:46.147Z,34.55
2022-07-28T12:24:21.037Z,34.26
2022-07-28T12:26:49.931Z,34.44
2022-07-28T12:29:17.788Z,34.48
2022-07-28T12:32:12.944Z,33.72
2022-07-28T12:34:44.374Z,34.27
2022-07-28T12:37:14.011Z,32.39
2022-07-28T12:39:42.957Z,33.15
2022-07-28T12:42:11.477Z,32.52
2022-07-28T12:44:43.714Z,32.01
2022-07-28T12:47:15.971Z,32.62
2022-07-28T12:49:44.656Z,34.39
2022-07-28T12:52:22.912Z,32.46
2022-07-28T12:54:53.716Z,34.24
2022-07-28T12:57:51.622Z,33.32
2022-07-28T13:00:24.646Z,33.04
2022-07-28T13:02:53.433Z,34.21
2022-07-28T13:05:56.082Z,34.45
2022-07-28T13:08:24.246Z,33.65
2022-07-28T13:10:57.195Z,33.67
2022-07-28T13:13:25.289Z,34.21
2022-07-28T13:16:14.670Z,35.96
2022-07-28T13:18:50.146Z,35.37
2022-07-28T13:21:36.610Z,35.13
2022-07-28T13:24:03.696Z,37.95
2022-07-28T13:26:31.784Z,37.11
2022-07-28T13:29:02.369Z,35.52
2022-07-28T13:31:32.255Z,36.78
2022-07-28T13:33:59.290Z,35.80
2022-07-28T13:36:25.814Z,37.83
2022-07-28T13:38:55.214Z,38.88
2022-07-28T13:41:21.874Z,42.44
2022-07-28T13:43:49.135Z,40.56
2022-07-28T13:46:20.886Z,42.61
2022-07-28T13:48:57.654Z,41.21
2022-07-28T13:51:24.757Z,42.28
2022-07-28T13:53:51.736Z,43.27
2022-07-28T13:56:36.787Z,42.37
2022-07-28T13:59:08.661Z,41.78
2022-07-28T14:01:36.284Z,42.89
2022-07-28T14:04:04.436Z,43.01
2022-07-28T14:06:30.983Z,43.17
2022-07-28T14:08:57.769Z,43.43
2022-07-28T14:11:24.744Z,44.42
2022-07-28T14:13:54.086Z,44.21
2022-07-28T14:16:22.047Z,43.07
2022-07-28T14:18:49.449Z,43.17
2022-07-28T14:21:16.945Z,42.70
2022-07-28T14:23:45.804Z,43.23
2022-07-28T14:26:35.053Z,43.12
2022-07-28T14:29:01.960Z,43.17
2022-07-28T14:31:29.580Z,43.43
2022-07-28T14:33:56.805Z,43.46
2022-07-28T14:36:23.332Z,43.40
2022-07-28T14:38:53.597Z,43.25
2022-07-28T14:41:20.604Z,42.53
2022-07-28T14:43:47.186Z,42.95
2022-07-28T14:46:20.660Z,44.09
2022-07-28T14:48:48.027Z,44.61
2022-07-28T14:51:14.633Z,43.30
2022-07-28T14:53:43.442Z,44.09
2022-07-28T14:56:18.217Z,43.42
2022-07-28T14:58:44.822Z,43.73
2022-07-28T15:01:11.422Z,43.98
2022-07-28T15:03:38.033Z,44.61
2022-07-28T15:06:10.222Z,44.74
2022-07-28T15:08:36.743Z,44.65
2022-07-28T15:11:03.417Z,45.05
2022-07-28T15:13:29.970Z,44.71
2022-07-28T15:15:57.039Z,45.37
2022-07-28T15:18:24.506Z,45.29
2022-07-28T15:20:51.335Z,44.60
2022-07-28T15:23:17.948Z,45.51
2022-07-28T15:25:46.440Z,45.85
2022-07-28T15:28:17.524Z,45.31
2022-07-28T15:30:51.656Z,44.52
2022-07-28T15:33:20.431Z,44.79
2022-07-28T15:35:58.113Z,46.10
2022-07-28T15:38:27.742Z,45.77
2022-07-28T15:40:55.016Z,45.45
2022-07-28T15:43:23.619Z,45.87
2022-07-28T15:45:50.696Z,46.66
2022-07-28T15:48:17.289Z,45.91
2022-07-28T15:50:45.504Z,46.31
2022-07-28T15:53:12.076Z,46.98
2022-07-28T15:55:38.876Z,47.33
2022-07-28T15:58:05.501Z,46.73
2022-07-28T16:00:33.824Z,46.73
2022-07-28T16:03:01.483Z,46.25
2022-07-28T16:05:28.677Z,47.26
2022-07-28T16:07:58.366Z,47.03
2022-07-28T16:10:27.115Z,47.22
2022-07-28T16:12:55.924Z,46.79
2022-07-28T16:15:24.969Z,47.14
2022-07-28T16:17:51.492Z,47.21
2022-07-28T16:20:18.052Z,47.21
2022-07-28T16:22:44.628Z,46.88
2022-07-28T16:25:16.520Z,47.05
2022-07-28T16:27:44.613Z,47.19
2022-07-28T16:30:11.631Z,47.64
2022-07-28T16:32:39.343Z,46.71
2022-07-28T16:35:07.272Z,46.61
2022-07-28T16:37:35.512Z,46.35
2022-07-28T16:40:04.711Z,46.63
2022-07-28T16:42:32.156Z,46.43
2022-07-28T16:44:58.951Z,46.10
2022-07-28T16:47:25.897Z,46.06
2022-07-28T16:49:52.389Z,45.81
2022-07-28T16:52:20.911Z,45.71
2022-07-28T16:54:47.764Z,45.79
2022-07-28T16:57:14.846Z,46.38
2022-07-28T16:59:48.116Z,46.63
2022-07-28T17:02:15.491Z,46.78
2022-07-28T17:04:42.470Z,46.61
2022-07-28T17:07:13.473Z,46.88
2022-07-28T17:09:41.523Z,47.01
2022-07-28T17:12:09.248Z,46.77
2022-07-28T17:14:40.854Z,46.91
2022-07-28T17:17:07.463Z,47.01
2022-07-28T17:19:33.972Z,46.82
2022-07-28T17:22:01.941Z,47.99
2022-07-28T17:24:28.524Z,48.54
2022-07-28T17:29:42.695Z,48.47
2022-07-28T17:32:09.532Z,48.93
2022-07-28T17:34:37.551Z,49.00
2022-07-28T17:37:05.185Z,49.08
2022-07-28T17:39:32.210Z,49.67
2022-07-28T17:41:58.962Z,49.00
2022-07-28T17:44:25.759Z,49.64
2022-07-28T17:46:52.343Z,49.63
2022-07-28T17:49:19.080Z,50.44
2022-07-28T17:51:45.680Z,51.17
2022-07-28T17:54:15.548Z,51.48
2022-07-28T17:56:42.557Z,51.32
2022-07-28T17:59:10.470Z,52.04
2022-07-28T18:01:38.967Z,52.19
2022-07-28T18:04:08.958Z,52.60
2022-07-28T18:06:37.182Z,52.66
2022-07-28T18:09:07.896Z,52.98
2022-07-28T18:11:57.610Z,53.62
2022-07-28T18:14:27.168Z,54.22
2022-07-28T18:16:53.786Z,55.08
2022-07-28T18:19:20.335Z,55.16
2022-07-28T18:21:46.812Z,55.86
2022-07-28T18:24:13.684Z,56.63
2022-07-28T18:26:40.772Z,56.42
2022-07-28T18:29:07.742Z,57.68
2022-07-28T18:31:34.295Z,58.65
2022-07-28T18:34:00.898Z,59.47
2022-07-28T18:36:27.409Z,60.28
2022-07-28T18:38:53.967Z,60.44
2022-07-28T18:41:20.501Z,61.23
2022-07-28T18:43:47.012Z,61.50
2022-07-28T18:46:13.892Z,62.10
2022-07-28T18:48:40.500Z,62.40
2022-07-28T18:51:07.222Z,62.85
2022-07-28T18:53:33.836Z,63.79
2022-07-28T18:56:00.361Z,64.75
2022-07-28T18:58:26.877Z,65.47
2022-07-28T19:00:54.654Z,66.31
2022-07-28T19:03:21.298Z,66.90
2022-07-28T19:05:47.871Z,68.40
2022-07-28T19:08:14.449Z,69.75
2022-07-28T19:10:40.964Z,70.48
2022-07-28T19:13:12.344Z,71.95
2022-07-28T19:15:40.853Z,73.33
2022-07-28T19:18:09.869Z,74.23
2022-07-28T19:20:37.105Z,75.41
2022-07-28T19:23:05.458Z,76.23
2022-07-28T19:25:32.433Z,77.61
2022-07-28T19:27:59.067Z,79.60
2022-07-28T19:30:25.655Z,81.35
2022-07-28T19:32:52.202Z,81.13
2022-07-28T19:35:18.973Z,83.73
2022-07-28T19:37:45.601Z,85.81
2022-07-28T19:40:13.314Z,86.48
2022-07-28T19:42:39.902Z,87.09
2022-07-28T19:45:07.296Z,88.67
2022-07-28T19:47:36.904Z,89.05
2022-07-28T19:50:05.175Z,89.88
2022-07-28T19:52:31.966Z,91.07
2022-07-28T19:54:58.499Z,89.82
2022-07-28T19:57:26.706Z,92.05
2022-07-28T19:59:53.257Z,93.75
2022-07-28T20:02:19.851Z,94.83
2022-07-28T20:04:46.480Z,95.14
2022-07-28T20:07:12.974Z,94.78
2022-07-28T20:09:39.836Z,95.33
2022-07-28T20:12:07.820Z,94.88
2022-07-28T20:14:36.181Z,97.17
2022-07-28T20:17:02.850Z,96.95
2022-07-28T20:19:30.107Z,99.12
2022-07-28T20:21:57.253Z,98.15
2022-07-28T20:24:24.043Z,98.51
2022-07-28T20:26:50.568Z,99.43
2022-07-28T20:29:17.142Z,99.09
2022-07-28T20:31:43.909Z,99.35
2022-07-28T20:34:12.977Z,98.63
2022-07-28T20:36:39.719Z,99.17
2022-07-28T20:39:27.400Z,100.00
2022-07-28T20:41:52.821Z,100.00
2022-07-28T20:44:28.719Z,100.00
2022-07-28T20:46:58.621Z,100.00
2022-07-28T20:49:25.286Z,100.00
2022-07-28T20:51:51.865Z,100.00
2022-07-28T20:54:19.002Z,100.00
2022-07-28T20:56:45.600Z,100.00
2022-07-28T20:59:12.184Z,100.00
2022-07-28T21:01:39.193Z,100.00
2022-07-28T21:04:05.979Z,100.00
2022-07-28T21:06:37.912Z,100.00
2022-07-28T21:09:05.172Z,100.00
2022-07-28T21:11:34.957Z,100.00
2022-07-28T21:14:02.074Z,100.00
2022-07-28T21:16:29.296Z,100.00
2022-07-28T21:18:55.987Z,100.00
2022-07-28T21:21:22.897Z,100.00
2022-07-28T21:23:49.791Z,100.00
2022-07-28T21:26:16.990Z,100.00
2022-07-28T21:29:02.129Z,100.00
2022-07-28T21:31:28.669Z,100.00
2022-07-28T21:33:55.381Z,100.00
2022-07-28T21:36:22.046Z,100.00
2022-07-28T21:38:49.241Z,100.00
2022-07-28T21:41:16.334Z,100.00
2022-07-28T21:43:42.818Z,100.00
2022-07-28T21:46:09.494Z,100.00
2022-07-28T21:48:36.157Z,100.00
2022-07-28T21:51:02.798Z,100.00
2022-07-28T21:53:29.359Z,100.00
2022-07-28T21:55:57.177Z,100.00
2022-07-28T21:58:24.382Z,100.00
2022-07-28T22:00:50.998Z,100.00
2022-07-28T22:03:17.543Z,100.00
2022-07-28T22:05:44.127Z,100.00
2022-07-28T22:08:10.862Z,100.00
2022-07-28T22:10:37.369Z,100.00
2022-07-28T22:13:04.021Z,100.00
2022-07-28T22:15:30.563Z,100.00
2022-07-28T22:17:57.137Z,100.00
2022-07-28T22:20:23.682Z,100.00
2022-07-28T22:22:50.268Z,100.00
2022-07-28T22:25:16.812Z,100.00
2022-07-28T22:27:43.330Z,100.00
2022-07-28T22:30:10.151Z,100.00
2022-07-28T22:32:36.764Z,100.00
2022-07-28T22:35:04.489Z,100.00
2022-07-28T22:37:31.071Z,100.00
2022-07-28T22:39:57.622Z,100.00
2022-07-28T22:42:24.175Z,100.00
2022-07-28T22:44:50.699Z,100.00
2022-07-28T22:47:17.311Z,100.00
2022-07-28T22:49:43.892Z,100.00
2022-07-28T22:52:10.418Z,100.00
2022-07-28T22:54:40.393Z,100.00
2022-07-28T22:57:07.231Z,100.00
2022-07-28T22:59:35.047Z,100.00
2022-07-28T23:02:06.775Z,100.00
2022-07-28T23:04:33.573Z,100.00
2022-07-28T23:07:00.822Z,100.00
2022-07-28T23:09:27.532Z,100.00
2022-07-28T23:11:56.484Z,100.00
2022-07-28T23:14:25.296Z,100.00
2022-07-28T23:16:51.798Z,100.00
2022-07-28T23:19:18.724Z,100.00
2022-07-28T23:21:45.450Z,100.00
2022-07-28T23:24:12.846Z,100.00
2022-07-28T23:26:39.657Z,100.00
2022-07-28T23:29:06.218Z,100.00
2022-07-28T23:31:32.850Z,100.00
2022-07-28T23:33:59.658Z,100.00
2022-07-28T23:36:27.742Z,100.00
2022-07-28T23:38:57.525Z,100.00
2022-07-28T23:41:24.429Z,100.00
2022-07-28T23:43:52.290Z,100.00
2022-07-28T23:46:19.491Z,100.00
2022-07-28T23:48:47.710Z,100.00
2022-07-28T23:51:21.528Z,100.00
2022-07-28T23:53:54.355Z,100.00
2022-07-28T23:56:28.395Z,100.00
2022-07-28T23:58:54.975Z,100.00
